Volgo-balt 229 — UHZF — position and weather

sailwx.info

Track history (hours):
 
Tides and Currents Weather Stations Pressure Air Temp Water Temp Dewpoint Dewpoint Depression Visibility Wind Speed Wind Dir Waves Ship Positions

Volgo-balt 229

Last reported at 2015-Feb-01 06:32 UTC. Time now 2015-Feb-01 07:12 UTC.
Position N 54°32' E 010°19'.

Length 113 m; draft 3.8 m.

Type: Ship. MMSI: 273336300.

Date/timePositionNaut miles runAvg speedWind from/ knotsBaromVisibWave heightAir tempDewpointWater temp
2015-Feb-01 06:32N 54°32' E 010°19'0 0.0
2015-Feb-01 05:32N 54°32' E 010°19'0 0.1
2015-Feb-01 04:30N 54°32' E 010°19'0 0.0
2015-Feb-01 03:32N 54°32' E 010°19'0 0.0
2015-Feb-01 02:32N 54°32' E 010°19'0 0.0
2015-Feb-01 01:32N 54°32' E 010°19'0 0.0
2015-Feb-01 00:32N 54°32' E 010°19'0 0.0
2015-Jan-31 23:32N 54°32' E 010°19'0 0.0
2015-Jan-31 22:32N 54°32' E 010°19'0 0.0
2015-Jan-31 21:32N 54°32' E 010°19'0 0.0
2015-Jan-31 20:32N 54°32' E 010°19'0 0.0
2015-Jan-31 19:29N 54°32' E 010°19'0 0.0
2015-Jan-31 18:32N 54°32' E 010°19'0 0.0
2015-Jan-31 17:32N 54°32' E 010°19'0 0.0
2015-Jan-31 16:32N 54°32' E 010°19'0 0.0
2015-Jan-31 15:32N 54°32' E 010°19'0 0.0
2015-Jan-31 14:32N 54°32' E 010°19'0 0.0
2015-Jan-31 13:32N 54°32' E 010°19'0 0.0
2015-Jan-31 12:32N 54°32' E 010°19'0 0.0
2015-Jan-31 11:32N 54°32' E 010°19'0 0.0
2015-Jan-31 10:32N 54°32' E 010°19'0 0.0
2015-Jan-31 09:32N 54°32' E 010°19'0 0.0
2015-Jan-31 08:32N 54°32' E 010°19'0 0.0
2015-Jan-31 07:32N 54°32' E 010°19'0 0.0
2015-Jan-31 06:32N 54°32' E 010°19'0 0.0
2015-Jan-31 05:32N 54°32' E 010°19'0 0.0
2015-Jan-31 04:32N 54°32' E 010°19'0 0.0
2015-Jan-31 03:32N 54°32' E 010°19'0 0.0
2015-Jan-31 02:32N 54°32' E 010°19'0 0.0
2015-Jan-31 01:32N 54°32' E 010°19'0 0.0
2015-Jan-31 00:32N 54°32' E 010°19'0 0.0
2015-Jan-30 23:32N 54°32' E 010°19'0 0.0
2015-Jan-30 22:32N 54°32' E 010°19'0 0.0
2015-Jan-30 21:32N 54°32' E 010°19'0 0.0
2015-Jan-30 20:11N 54°32' E 010°19'0 0.0
2015-Jan-30 19:23N 54°32' E 010°19'0 0.0
2015-Jan-30 18:29N 54°32' E 010°19'0 0.0
2015-Jan-30 17:23N 54°32' E 010°19'0 0.0
2015-Jan-30 16:29N 54°32' E 010°19'0 0.0
2015-Jan-30 15:17N 54°32' E 010°19'0 0.0
2015-Jan-30 14:05N 54°32' E 010°19'0 0.0
2015-Jan-30 10:32N 54°32' E 010°19'0 0.0
2015-Jan-30 09:32N 54°32' E 010°19'0 0.1
2015-Jan-30 08:32N 54°32' E 010°19'0 0.0
2015-Jan-30 07:33N 54°32' E 010°19'7 6.5
2015-Jan-30 06:33N 54°33' E 010°30'8 8.1
2015-Jan-30 05:31N 54°35' E 010°44'9 7.9
2015-Jan-30 04:21N 54°36' E 011°00'6 7.6
2015-Jan-30 03:33N 54°36' E 011°11'8 7.6
2015-Jan-30 02:33N 54°33' E 011°22'7 7.4
2015-Jan-30 01:33N 54°30' E 011°34'8 7.7
2015-Jan-30 00:33N 54°27' E 011°46'7 7.1
2015-Jan-29 23:33N 54°27' E 011°59'7 6.7
2015-Jan-29 22:33N 54°28' E 012°10'7 7.0
2015-Jan-29 21:32N 54°35' E 012°13'33 6.3
2015-Jan-29 16:18N 54°47' E 013°07'5 6.7
2015-Jan-29 15:33N 54°47' E 013°15'5 4.7
2015-Jan-29 14:33N 54°47' E 013°24'4 4.0
2015-Jan-29 13:33N 54°46' E 013°31'6 5.7
2015-Jan-29 12:33N 54°43' E 013°38'7 7.2
2015-Jan-29 11:33N 54°36' E 013°44'7 6.9
2015-Jan-29 10:33N 54°29' E 013°45'4 4.0
2015-Jan-29 09:33N 54°26' E 013°42'0 0.0
2015-Jan-29 08:33N 54°26' E 013°42'0 0.0
2015-Jan-29 07:31N 54°26' E 013°42'4 4.4
2015-Jan-29 06:34N 54°25' E 013°49'6 5.7
2015-Jan-29 05:33N 54°22' E 013°57'6 6.0
2015-Jan-29 04:33N 54°18' E 014°05'6 6.1
2015-Jan-29 03:34N 54°14' E 014°13'7 6.7
2015-Jan-29 02:33N 54°09' E 014°20'5 5.1
2015-Jan-29 01:34N 54°08' E 014°29'145 6.3
2015-Jan-28 02:33N 55°06' E 018°19'7 7.3
2015-Jan-28 01:33N 55°08' E 018°31'8 7.4
2015-Jan-28 00:26N 55°10' E 018°45'7 7.6
2015-Jan-27 23:31N 55°13' E 018°56'  
2015-Jan-25 06:24N 54°57' E 015°27'8 8.7
2015-Jan-25 05:32N 54°54' E 015°15'9 9.0
2015-Jan-25 04:33N 54°54' E 014°60'9 8.8
2015-Jan-25 03:33N 54°53' E 014°45'9 8.8
2015-Jan-25 02:33N 54°52' E 014°29'25 8.3
2015-Jan-24 23:33N 54°47' E 013°47'8 8.0
2015-Jan-24 22:33N 54°45' E 013°34'8 8.1
2015-Jan-24 21:33N 54°43' E 013°20'8 7.8
2015-Jan-24 20:33N 54°42' E 013°07'8 8.1
2015-Jan-24 19:33N 54°41' E 012°53'9 8.0
2015-Jan-24 18:25N 54°38' E 012°38'15 7.9
2015-Jan-24 16:33N 54°30' E 012°17'8 7.4
2015-Jan-24 15:25N 54°23' E 012°09'7 7.7
2015-Jan-24 14:33N 54°17' E 012°06'7 7.4
2015-Jan-24 13:33N 54°09' E 012°06'0 0.3
2015-Jan-24 12:26N 54°09' E 012°07'0 0.0
2015-Jan-24 11:23N 54°09' E 012°07'0 0.0
2015-Jan-24 10:14N 54°09' E 012°07'0 0.0
2015-Jan-24 09:17N 54°09' E 012°07'0 0.0
2015-Jan-24 08:32N 54°09' E 012°07'0 0.0
2015-Jan-24 07:26N 54°09' E 012°07'0 0.0
2015-Jan-24 06:23N 54°09' E 012°07'0 0.0
2015-Jan-24 05:20N 54°09' E 012°07'0 0.0
2015-Jan-24 04:23N 54°09' E 012°07'0 0.0
2015-Jan-24 02:14N 54°09' E 012°07'0 0.0
2015-Jan-24 01:11N 54°09' E 012°07'0 0.0
2015-Jan-24 00:22N 54°09' E 012°07'0 0.0
2015-Jan-23 23:31N 54°09' E 012°07'0 0.0
2015-Jan-23 22:22N 54°09' E 012°07'0 0.0
2015-Jan-23 21:25N 54°09' E 012°07'0 0.0
2015-Jan-23 20:22N 54°09' E 012°07'0 0.0
2015-Jan-23 19:28N 54°09' E 012°07'0 0.0
2015-Jan-23 18:28N 54°09' E 012°07'0 0.0
2015-Jan-23 17:28N 54°09' E 012°07'0 0.0
2015-Jan-23 15:07N 54°09' E 012°07'0 0.0
2015-Jan-23 14:25N 54°09' E 012°07'0 0.0
2015-Jan-23 13:33N 54°09' E 012°07'4 4.3
2015-Jan-23 12:33N 54°13' E 012°04'8 7.7
2015-Jan-23 11:33N 54°20' E 011°59'7 6.9
2015-Jan-23 10:33N 54°26' E 012°04'8 7.8
2015-Jan-23 09:32N 54°33' E 012°12'8 7.6
2015-Jan-23 08:31N 54°39' E 012°20'41 7.6
2015-Jan-23 03:03N 54°54' E 013°27'4 7.7
2015-Jan-23 02:33N 54°54' E 013°33'8 7.9
2015-Jan-23 01:31N 54°54' E 013°48'7 7.3
2015-Jan-23 00:31N 54°54' E 014°00'7 7.1
2015-Jan-22 23:33N 54°54' E 014°12'7 7.6
2015-Jan-22 22:33N 54°54' E 014°25'7 7.5
2015-Jan-22 21:33N 54°54' E 014°38'7 7.4
2015-Jan-22 20:33N 54°54' E 014°51'7 7.3
2015-Jan-22 19:33N 54°54' E 015°04'11 7.2
2015-Jan-22 18:05N 54°58' E 015°21'  
Track history (hours):
 
Tides and Currents Weather Stations Pressure Air Temp Water Temp Dewpoint Dewpoint Depression Visibility Wind Speed Wind Dir Waves Ship Positions

Volgo-balt 229

Last reported at 2015-Feb-01 06:32 UTC. Time now 2015-Feb-01 07:12 UTC.
Position N 54°32' E 010°19'.

Length 113 m; draft 3.8 m.

Type: Ship. MMSI: 273336300.

Date/timePositionNaut miles runAvg speedWind from/ knotsBaromVisibWave heightAir tempDewpointWater temp
2015-Feb-01 06:32N 54°32' E 010°19'0 0.0
2015-Feb-01 05:32N 54°32' E 010°19'0 0.1
2015-Feb-01 04:30N 54°32' E 010°19'0 0.0
2015-Feb-01 03:32N 54°32' E 010°19'0 0.0
2015-Feb-01 02:32N 54°32' E 010°19'0 0.0
2015-Feb-01 01:32N 54°32' E 010°19'0 0.0
2015-Feb-01 00:32N 54°32' E 010°19'0 0.0
2015-Jan-31 23:32N 54°32' E 010°19'0 0.0
2015-Jan-31 22:32N 54°32' E 010°19'0 0.0
2015-Jan-31 21:32N 54°32' E 010°19'0 0.0
2015-Jan-31 20:32N 54°32' E 010°19'0 0.0
2015-Jan-31 19:29N 54°32' E 010°19'0 0.0
2015-Jan-31 18:32N 54°32' E 010°19'0 0.0
2015-Jan-31 17:32N 54°32' E 010°19'0 0.0
2015-Jan-31 16:32N 54°32' E 010°19'0 0.0
2015-Jan-31 15:32N 54°32' E 010°19'0 0.0
2015-Jan-31 14:32N 54°32' E 010°19'0 0.0
2015-Jan-31 13:32N 54°32' E 010°19'0 0.0
2015-Jan-31 12:32N 54°32' E 010°19'0 0.0
2015-Jan-31 11:32N 54°32' E 010°19'0 0.0
2015-Jan-31 10:32N 54°32' E 010°19'0 0.0
2015-Jan-31 09:32N 54°32' E 010°19'0 0.0
2015-Jan-31 08:32N 54°32' E 010°19'0 0.0
2015-Jan-31 07:32N 54°32' E 010°19'0 0.0
2015-Jan-31 06:32N 54°32' E 010°19'0 0.0
2015-Jan-31 05:32N 54°32' E 010°19'0 0.0
2015-Jan-31 04:32N 54°32' E 010°19'0 0.0
2015-Jan-31 03:32N 54°32' E 010°19'0 0.0
2015-Jan-31 02:32N 54°32' E 010°19'0 0.0
2015-Jan-31 01:32N 54°32' E 010°19'0 0.0
2015-Jan-31 00:32N 54°32' E 010°19'0 0.0
2015-Jan-30 23:32N 54°32' E 010°19'0 0.0
2015-Jan-30 22:32N 54°32' E 010°19'0 0.0
2015-Jan-30 21:32N 54°32' E 010°19'0 0.0
2015-Jan-30 20:11N 54°32' E 010°19'0 0.0
2015-Jan-30 19:23N 54°32' E 010°19'0 0.0
2015-Jan-30 18:29N 54°32' E 010°19'0 0.0
2015-Jan-30 17:23N 54°32' E 010°19'0 0.0
2015-Jan-30 16:29N 54°32' E 010°19'0 0.0
2015-Jan-30 15:17N 54°32' E 010°19'0 0.0
2015-Jan-30 14:05N 54°32' E 010°19'0 0.0
2015-Jan-30 10:32N 54°32' E 010°19'0 0.0
2015-Jan-30 09:32N 54°32' E 010°19'0 0.1
2015-Jan-30 08:32N 54°32' E 010°19'0 0.0
2015-Jan-30 07:33N 54°32' E 010°19'7 6.5
2015-Jan-30 06:33N 54°33' E 010°30'8 8.1
2015-Jan-30 05:31N 54°35' E 010°44'9 7.9
2015-Jan-30 04:21N 54°36' E 011°00'6 7.6
2015-Jan-30 03:33N 54°36' E 011°11'8 7.6
2015-Jan-30 02:33N 54°33' E 011°22'7 7.4
2015-Jan-30 01:33N 54°30' E 011°34'8 7.7
2015-Jan-30 00:33N 54°27' E 011°46'7 7.1
2015-Jan-29 23:33N 54°27' E 011°59'7 6.7
2015-Jan-29 22:33N 54°28' E 012°10'7 7.0
2015-Jan-29 21:32N 54°35' E 012°13'33 6.3
2015-Jan-29 16:18N 54°47' E 013°07'5 6.7
2015-Jan-29 15:33N 54°47' E 013°15'5 4.7
2015-Jan-29 14:33N 54°47' E 013°24'4 4.0
2015-Jan-29 13:33N 54°46' E 013°31'6 5.7
2015-Jan-29 12:33N 54°43' E 013°38'7 7.2
2015-Jan-29 11:33N 54°36' E 013°44'7 6.9
2015-Jan-29 10:33N 54°29' E 013°45'4 4.0
2015-Jan-29 09:33N 54°26' E 013°42'0 0.0
2015-Jan-29 08:33N 54°26' E 013°42'0 0.0
2015-Jan-29 07:31N 54°26' E 013°42'4 4.4
2015-Jan-29 06:34N 54°25' E 013°49'6 5.7
2015-Jan-29 05:33N 54°22' E 013°57'6 6.0
2015-Jan-29 04:33N 54°18' E 014°05'6 6.1
2015-Jan-29 03:34N 54°14' E 014°13'7 6.7
2015-Jan-29 02:33N 54°09' E 014°20'5 5.1
2015-Jan-29 01:34N 54°08' E 014°29'145 6.3
2015-Jan-28 02:33N 55°06' E 018°19'7 7.3
2015-Jan-28 01:33N 55°08' E 018°31'8 7.4
2015-Jan-28 00:26N 55°10' E 018°45'7 7.6
2015-Jan-27 23:31N 55°13' E 018°56'  
2015-Jan-25 06:24N 54°57' E 015°27'8 8.7
2015-Jan-25 05:32N 54°54' E 015°15'9 9.0
2015-Jan-25 04:33N 54°54' E 014°60'9 8.8
2015-Jan-25 03:33N 54°53' E 014°45'9 8.8
2015-Jan-25 02:33N 54°52' E 014°29'25 8.3
2015-Jan-24 23:33N 54°47' E 013°47'8 8.0
2015-Jan-24 22:33N 54°45' E 013°34'8 8.1
2015-Jan-24 21:33N 54°43' E 013°20'8 7.8
2015-Jan-24 20:33N 54°42' E 013°07'8 8.1
2015-Jan-24 19:33N 54°41' E 012°53'9 8.0
2015-Jan-24 18:25N 54°38' E 012°38'15 7.9
2015-Jan-24 16:33N 54°30' E 012°17'8 7.4
2015-Jan-24 15:25N 54°23' E 012°09'7 7.7
2015-Jan-24 14:33N 54°17' E 012°06'7 7.4
2015-Jan-24 13:33N 54°09' E 012°06'0 0.3
2015-Jan-24 12:26N 54°09' E 012°07'0 0.0
2015-Jan-24 11:23N 54°09' E 012°07'0 0.0
2015-Jan-24 10:14N 54°09' E 012°07'0 0.0
2015-Jan-24 09:17N 54°09' E 012°07'0 0.0
2015-Jan-24 08:32N 54°09' E 012°07'0 0.0
2015-Jan-24 07:26N 54°09' E 012°07'0 0.0
2015-Jan-24 06:23N 54°09' E 012°07'0 0.0
2015-Jan-24 05:20N 54°09' E 012°07'0 0.0
2015-Jan-24 04:23N 54°09' E 012°07'0 0.0
2015-Jan-24 02:14N 54°09' E 012°07'0 0.0
2015-Jan-24 01:11N 54°09' E 012°07'0 0.0
2015-Jan-24 00:22N 54°09' E 012°07'0 0.0
2015-Jan-23 23:31N 54°09' E 012°07'0 0.0
2015-Jan-23 22:22N 54°09' E 012°07'0 0.0
2015-Jan-23 21:25N 54°09' E 012°07'0 0.0
2015-Jan-23 20:22N 54°09' E 012°07'0 0.0
2015-Jan-23 19:28N 54°09' E 012°07'0 0.0
2015-Jan-23 18:28N 54°09' E 012°07'0 0.0
2015-Jan-23 17:28N 54°09' E 012°07'0 0.0
2015-Jan-23 15:07N 54°09' E 012°07'0 0.0
2015-Jan-23 14:25N 54°09' E 012°07'0 0.0
2015-Jan-23 13:33N 54°09' E 012°07'4 4.3
2015-Jan-23 12:33N 54°13' E 012°04'8 7.7
2015-Jan-23 11:33N 54°20' E 011°59'7 6.9
2015-Jan-23 10:33N 54°26' E 012°04'8 7.8
2015-Jan-23 09:32N 54°33' E 012°12'8 7.6
2015-Jan-23 08:31N 54°39' E 012°20'41 7.6
2015-Jan-23 03:03N 54°54' E 013°27'4 7.7
2015-Jan-23 02:33N 54°54' E 013°33'8 7.9
2015-Jan-23 01:31N 54°54' E 013°48'7 7.3
2015-Jan-23 00:31N 54°54' E 014°00'7 7.1
2015-Jan-22 23:33N 54°54' E 014°12'7 7.6
2015-Jan-22 22:33N 54°54' E 014°25'7 7.5
2015-Jan-22 21:33N 54°54' E 014°38'7 7.4
2015-Jan-22 20:33N 54°54' E 014°51'7 7.3
2015-Jan-22 19:33N 54°54' E 015°04'11 7.2
2015-Jan-22 18:05N 54°58' E 015°21'  

Dump ship's entire track history